Main page
METAR-TAF:

METAR-TAF

Airports :

Bornholm Airport

Rønne, Denmark

latitude: 55-04N, longitude: 014-45E, elevation: 16 m

Current weather observation

The report was made 34 minutes ago, at 20:50 UTC
Wind 18 kt from the Southwest
Temperature 7°C
Humidity 81%
Pressure 1006 hPa
Visibility 10 km or more

METAR: EKRN 172050Z AUTO 23018KT 9999 BKN039/// 07/04 Q1006

Time: 22:24 (21:24 UTC)

Forecast

The report was made 3 hours and 58 minutes ago, at 17:26 UTC
Forecast valid from 17 at 18 UTC to 17 at 23 UTC
Wind 15 kt from the Southwest
Visibility 10 km or more
Scattered clouds at a height of 3000 ft
Temporary
from 17 at 18 UTC to 17 at 23 UTC
Wind 18 kt from the Southwest with gusts up to 28 kt
Scattered clouds at a height of 2000 ft, Cumulonimbus.
rain showers

TAF: EKRN 171726Z 1718/1723 23015KT 9999 SCT030 TEMPO 1718/1723 23018G28KT SHRA SCT020CB

Weather observations and forecasts of more than 4000 airports (METAR and TAF reports).

The available stations are represented by yellow and red dots on the map.

Hover mouse over dot to see the name of the station.

Then click to see weather observations and forecasts.

To change the map : click on the green buttons with a black cross to zoom in, on the green button with a dash to zoom out, or on the green arrows for adjacent maps.


METAR-TAF: